sensor_id;sensor_type;location;lat;lon;timestamp;temperature;humidity
51839;DHT22;37886;53.174;6.368;2023-06-14T00:01:52;14.80;96.30
51839;DHT22;37886;53.174;6.368;2023-06-14T00:04:18;14.80;96.50
51839;DHT22;37886;53.174;6.368;2023-06-14T00:06:46;14.70;96.90
51839;DHT22;37886;53.174;6.368;2023-06-14T00:09:12;14.70;97.40
51839;DHT22;37886;53.174;6.368;2023-06-14T00:11:43;14.60;97.90
51839;DHT22;37886;53.174;6.368;2023-06-14T00:14:09;14.60;98.30
51839;DHT22;37886;53.174;6.368;2023-06-14T00:16:35;14.60;98.60
51839;DHT22;37886;53.174;6.368;2023-06-14T00:19:02;14.60;99.20
51839;DHT22;37886;53.174;6.368;2023-06-14T00:21:30;14.60;99.60
51839;DHT22;37886;53.174;6.368;2023-06-14T00:23:57;14.50;99.90
51839;DHT22;37886;53.174;6.368;2023-06-14T00:26:23;14.50;99.90
51839;DHT22;37886;53.174;6.368;2023-06-14T00:28:49;14.50;99.90
51839;DHT22;37886;53.174;6.368;2023-06-14T00:31:15;14.40;99.90
51839;DHT22;37886;53.174;6.368;2023-06-14T00:33:40;14.40;99.90
51839;DHT22;37886;53.174;6.368;2023-06-14T00:36:06;14.40;99.90
51839;DHT22;37886;53.174;6.368;2023-06-14T00:38:32;14.30;99.90
51839;DHT22;37886;53.174;6.368;2023-06-14T00:40:57;14.30;99.90
51839;DHT22;37886;53.174;6.368;2023-06-14T00:43:23;14.30;99.90
51839;DHT22;37886;53.174;6.368;2023-06-14T00:45:49;14.30;99.90
51839;DHT22;37886;53.174;6.368;2023-06-14T00:48:17;14.20;99.90
51839;DHT22;37886;53.174;6.368;2023-06-14T00:50:44;14.20;99.90
51839;DHT22;37886;53.174;6.368;2023-06-14T00:53:12;14.20;99.90
51839;DHT22;37886;53.174;6.368;2023-06-14T00:55:38;14.20;99.90
51839;DHT22;37886;53.174;6.368;2023-06-14T00:58:04;14.10;99.90
51839;DHT22;37886;53.174;6.368;2023-06-14T01:00:29;14.00;99.90
51839;DHT22;37886;53.174;6.368;2023-06-14T01:02:55;14.00;99.90
51839;DHT22;37886;53.174;6.368;2023-06-14T01:05:22;14.00;99.90
51839;DHT22;37886;53.174;6.368;2023-06-14T01:13:18;13.90;99.90
51839;DHT22;37886;53.174;6.368;2023-06-14T01:15:46;14.00;99.90
51839;DHT22;37886;53.174;6.368;2023-06-14T01:18:12;13.90;99.90
51839;DHT22;37886;53.174;6.368;2023-06-14T01:20:45;13.90;99.90
51839;DHT22;37886;53.174;6.368;2023-06-14T01:23:12;13.80;99.90
51839;DHT22;37886;53.174;6.368;2023-06-14T01:25:38;13.80;99.90
51839;DHT22;37886;53.174;6.368;2023-06-14T01:28:11;13.80;99.90
51839;DHT22;37886;53.174;6.368;2023-06-14T01:30:40;13.80;99.90
51839;DHT22;37886;53.174;6.368;2023-06-14T01:33:22;13.80;99.90
51839;DHT22;37886;53.174;6.368;2023-06-14T01:35:50;13.70;99.90
51839;DHT22;37886;53.174;6.368;2023-06-14T01:38:20;13.70;99.90
51839;DHT22;37886;53.174;6.368;2023-06-14T01:40:48;13.70;99.90
51839;DHT22;37886;53.174;6.368;2023-06-14T01:43:15;13.70;99.90
51839;DHT22;37886;53.174;6.368;2023-06-14T01:45:42;13.70;99.90
51839;DHT22;37886;53.174;6.368;2023-06-14T01:48:10;13.70;99.90
51839;DHT22;37886;53.174;6.368;2023-06-14T01:50:35;13.70;99.90
51839;DHT22;37886;53.174;6.368;2023-06-14T01:53:01;13.70;99.90
51839;DHT22;37886;53.174;6.368;2023-06-14T01:55:27;13.60;99.90
51839;DHT22;37886;53.174;6.368;2023-06-14T01:57:53;13.60;99.90
51839;DHT22;37886;53.174;6.368;2023-06-14T02:00:20;13.60;99.90
51839;DHT22;37886;53.174;6.368;2023-06-14T02:02:47;13.50;99.90
51839;DHT22;37886;53.174;6.368;2023-06-14T02:05:12;13.50;99.90
51839;DHT22;37886;53.174;6.368;2023-06-14T02:07:38;13.40;99.90
51839;DHT22;37886;53.174;6.368;2023-06-14T02:10:06;13.40;99.90
51839;DHT22;37886;53.174;6.368;2023-06-14T02:12:32;13.40;99.90
51839;DHT22;37886;53.174;6.368;2023-06-14T02:14:57;13.40;99.90
51839;DHT22;37886;53.174;6.368;2023-06-14T02:17:23;13.40;99.90
51839;DHT22;37886;53.174;6.368;2023-06-14T02:19:50;13.40;99.90
51839;DHT22;37886;53.174;6.368;2023-06-14T02:22:16;13.30;99.90
51839;DHT22;37886;53.174;6.368;2023-06-14T02:24:43;13.30;99.90
51839;DHT22;37886;53.174;6.368;2023-06-14T02:27:09;13.30;99.90
51839;DHT22;37886;53.174;6.368;2023-06-14T02:29:38;13.30;99.90
51839;DHT22;37886;53.174;6.368;2023-06-14T02:32:06;13.30;99.90
51839;DHT22;37886;53.174;6.368;2023-06-14T02:34:35;13.30;99.90
51839;DHT22;37886;53.174;6.368;2023-06-14T02:37:02;13.30;99.90
51839;DHT22;37886;53.174;6.368;2023-06-14T02:39:30;13.40;99.90
51839;DHT22;37886;53.174;6.368;2023-06-14T02:41:56;13.40;99.90
51839;DHT22;37886;53.174;6.368;2023-06-14T02:44:26;13.40;99.90
51839;DHT22;37886;53.174;6.368;2023-06-14T02:46:55;13.40;99.90
51839;DHT22;37886;53.174;6.368;2023-06-14T02:49:22;13.50;99.90
51839;DHT22;37886;53.174;6.368;2023-06-14T02:51:48;13.50;99.90
51839;DHT22;37886;53.174;6.368;2023-06-14T02:54:13;13.50;99.90
51839;DHT22;37886;53.174;6.368;2023-06-14T02:56:39;13.50;99.90
51839;DHT22;37886;53.174;6.368;2023-06-14T02:59:06;13.60;99.90
51839;DHT22;37886;53.174;6.368;2023-06-14T03:01:33;13.60;99.90
51839;DHT22;37886;53.174;6.368;2023-06-14T03:04:07;13.60;99.90
51839;DHT22;37886;53.174;6.368;2023-06-14T03:06:32;13.60;99.90
51839;DHT22;37886;53.174;6.368;2023-06-14T03:09:00;13.60;99.90
51839;DHT22;37886;53.174;6.368;2023-06-14T03:11:26;13.70;99.90
51839;DHT22;37886;53.174;6.368;2023-06-14T03:13:53;13.70;99.90
51839;DHT22;37886;53.174;6.368;2023-06-14T03:16:19;13.70;99.90
51839;DHT22;37886;53.174;6.368;2023-06-14T03:18:51;13.70;99.90
51839;DHT22;37886;53.174;6.368;2023-06-14T03:21:20;13.80;99.90
51839;DHT22;37886;53.174;6.368;2023-06-14T03:23:50;13.70;99.90
51839;DHT22;37886;53.174;6.368;2023-06-14T03:26:16;13.80;99.90
51839;DHT22;37886;53.174;6.368;2023-06-14T03:28:46;13.80;99.90
51839;DHT22;37886;53.174;6.368;2023-06-14T03:31:13;13.80;99.90
51839;DHT22;37886;53.174;6.368;2023-06-14T03:33:39;13.80;99.90
51839;DHT22;37886;53.174;6.368;2023-06-14T03:36:05;13.80;99.90
51839;DHT22;37886;53.174;6.368;2023-06-14T03:38:32;13.90;99.90
51839;DHT22;37886;53.174;6.368;2023-06-14T03:40:58;13.90;99.90
51839;DHT22;37886;53.174;6.368;2023-06-14T03:43:23;14.00;99.90
51839;DHT22;37886;53.174;6.368;2023-06-14T03:45:49;14.00;99.90
51839;DHT22;37886;53.174;6.368;2023-06-14T03:48:15;14.00;99.90
51839;DHT22;37886;53.174;6.368;2023-06-14T03:50:40;14.00;99.90
51839;DHT22;37886;53.174;6.368;2023-06-14T03:53:08;14.00;99.90
51839;DHT22;37886;53.174;6.368;2023-06-14T03:55:34;14.00;99.90
51839;DHT22;37886;53.174;6.368;2023-06-14T03:58:00;14.00;99.90
51839;DHT22;37886;53.174;6.368;2023-06-14T04:00:26;14.10;99.90
51839;DHT22;37886;53.174;6.368;2023-06-14T04:02:52;14.10;99.90
51839;DHT22;37886;53.174;6.368;2023-06-14T04:05:18;14.10;99.90
51839;DHT22;37886;53.174;6.368;2023-06-14T04:07:45;14.10;99.90
51839;DHT22;37886;53.174;6.368;2023-06-14T04:10:15;14.10;99.90
51839;DHT22;37886;53.174;6.368;2023-06-14T04:12:41;14.20;99.90
51839;DHT22;37886;53.174;6.368;2023-06-14T04:15:08;14.30;99.90
51839;DHT22;37886;53.174;6.368;2023-06-14T04:17:34;14.30;99.90
51839;DHT22;37886;53.174;6.368;2023-06-14T04:20:01;14.40;99.90
51839;DHT22;37886;53.174;6.368;2023-06-14T04:22:27;14.40;99.90
51839;DHT22;37886;53.174;6.368;2023-06-14T04:24:57;14.40;99.90
51839;DHT22;37886;53.174;6.368;2023-06-14T04:27:23;14.50;99.90
51839;DHT22;37886;53.174;6.368;2023-06-14T04:29:55;14.50;99.90
51839;DHT22;37886;53.174;6.368;2023-06-14T04:32:25;14.60;99.90
51839;DHT22;37886;53.174;6.368;2023-06-14T04:34:57;14.60;99.90
51839;DHT22;37886;53.174;6.368;2023-06-14T04:37:24;14.70;99.90
51839;DHT22;37886;53.174;6.368;2023-06-14T04:39:54;14.70;99.90
51839;DHT22;37886;53.174;6.368;2023-06-14T04:42:24;14.70;99.90
51839;DHT22;37886;53.174;6.368;2023-06-14T04:44:51;14.80;99.90
51839;DHT22;37886;53.174;6.368;2023-06-14T04:47:21;14.80;99.90
51839;DHT22;37886;53.174;6.368;2023-06-14T04:49:47;14.80;99.90
51839;DHT22;37886;53.174;6.368;2023-06-14T04:52:13;14.90;99.90
51839;DHT22;37886;53.174;6.368;2023-06-14T04:54:39;14.90;99.90
51839;DHT22;37886;53.174;6.368;2023-06-14T04:57:09;14.90;99.90
51839;DHT22;37886;53.174;6.368;2023-06-14T04:59:40;15.00;99.90
51839;DHT22;37886;53.174;6.368;2023-06-14T05:02:05;15.00;99.90
51839;DHT22;37886;53.174;6.368;2023-06-14T05:04:32;15.10;99.90
51839;DHT22;37886;53.174;6.368;2023-06-14T05:06:59;15.10;99.90
51839;DHT22;37886;53.174;6.368;2023-06-14T05:09:26;15.10;99.90
51839;DHT22;37886;53.174;6.368;2023-06-14T05:11:52;15.10;99.90
51839;DHT22;37886;53.174;6.368;2023-06-14T05:14:18;15.20;99.90
51839;DHT22;37886;53.174;6.368;2023-06-14T05:16:43;15.20;99.90
51839;DHT22;37886;53.174;6.368;2023-06-14T05:19:09;15.30;99.90
51839;DHT22;37886;53.174;6.368;2023-06-14T05:21:36;15.30;99.90
51839;DHT22;37886;53.174;6.368;2023-06-14T05:24:04;15.40;99.90
51839;DHT22;37886;53.174;6.368;2023-06-14T05:26:30;15.50;99.90
51839;DHT22;37886;53.174;6.368;2023-06-14T05:28:57;15.50;99.90
51839;DHT22;37886;53.174;6.368;2023-06-14T05:31:25;15.60;99.90
51839;DHT22;37886;53.174;6.368;2023-06-14T05:33:52;15.70;99.90
51839;DHT22;37886;53.174;6.368;2023-06-14T05:36:18;15.70;99.90
51839;DHT22;37886;53.174;6.368;2023-06-14T05:38:44;15.80;99.90
51839;DHT22;37886;53.174;6.368;2023-06-14T05:41:10;15.80;99.90
51839;DHT22;37886;53.174;6.368;2023-06-14T05:43:36;16.00;99.90
51839;DHT22;37886;53.174;6.368;2023-06-14T05:46:02;16.00;99.90
51839;DHT22;37886;53.174;6.368;2023-06-14T05:48:28;16.20;99.90
51839;DHT22;37886;53.174;6.368;2023-06-14T05:50:54;16.20;99.90
51839;DHT22;37886;53.174;6.368;2023-06-14T05:53:20;16.30;99.90
51839;DHT22;37886;53.174;6.368;2023-06-14T05:55:46;16.40;99.90
51839;DHT22;37886;53.174;6.368;2023-06-14T05:58:11;16.50;99.90
51839;DHT22;37886;53.174;6.368;2023-06-14T06:00:39;16.50;99.90
51839;DHT22;37886;53.174;6.368;2023-06-14T06:03:04;16.70;99.90
51839;DHT22;37886;53.174;6.368;2023-06-14T06:05:33;16.80;99.90
51839;DHT22;37886;53.174;6.368;2023-06-14T06:07:59;16.90;99.90
51839;DHT22;37886;53.174;6.368;2023-06-14T06:10:25;17.00;99.90
51839;DHT22;37886;53.174;6.368;2023-06-14T06:12:51;17.10;99.90
51839;DHT22;37886;53.174;6.368;2023-06-14T06:15:18;17.10;99.90
51839;DHT22;37886;53.174;6.368;2023-06-14T06:17:44;17.20;99.90
51839;DHT22;37886;53.174;6.368;2023-06-14T06:20:10;17.20;99.90
51839;DHT22;37886;53.174;6.368;2023-06-14T06:22:37;17.30;99.90
51839;DHT22;37886;53.174;6.368;2023-06-14T06:25:03;17.40;99.90
51839;DHT22;37886;53.174;6.368;2023-06-14T06:27:29;17.50;99.90
51839;DHT22;37886;53.174;6.368;2023-06-14T06:29:55;17.50;99.90
51839;DHT22;37886;53.174;6.368;2023-06-14T06:32:32;17.60;99.90
51839;DHT22;37886;53.174;6.368;2023-06-14T06:34:57;17.80;99.90
51839;DHT22;37886;53.174;6.368;2023-06-14T06:37:25;17.90;99.90
51839;DHT22;37886;53.174;6.368;2023-06-14T06:39:51;17.90;99.90
51839;DHT22;37886;53.174;6.368;2023-06-14T06:42:16;18.00;99.90
51839;DHT22;37886;53.174;6.368;2023-06-14T06:44:42;18.20;99.90
51839;DHT22;37886;53.174;6.368;2023-06-14T06:47:08;18.20;99.90
51839;DHT22;37886;53.174;6.368;2023-06-14T06:49:35;18.30;99.90
51839;DHT22;37886;53.174;6.368;2023-06-14T06:52:03;18.40;99.90
51839;DHT22;37886;53.174;6.368;2023-06-14T06:54:29;18.50;99.90
51839;DHT22;37886;53.174;6.368;2023-06-14T06:56:55;18.50;99.90
51839;DHT22;37886;53.174;6.368;2023-06-14T06:59:21;18.50;99.90
51839;DHT22;37886;53.174;6.368;2023-06-14T07:01:47;18.60;99.90
51839;DHT22;37886;53.174;6.368;2023-06-14T07:04:13;18.70;99.90
51839;DHT22;37886;53.174;6.368;2023-06-14T07:06:39;18.80;99.90
51839;DHT22;37886;53.174;6.368;2023-06-14T07:09:05;18.90;99.90
51839;DHT22;37886;53.174;6.368;2023-06-14T07:11:33;19.00;99.90
51839;DHT22;37886;53.174;6.368;2023-06-14T07:13:59;19.10;99.90
51839;DHT22;37886;53.174;6.368;2023-06-14T07:16:25;19.20;99.90
51839;DHT22;37886;53.174;6.368;2023-06-14T07:18:51;19.20;99.90
51839;DHT22;37886;53.174;6.368;2023-06-14T07:21:18;19.30;99.90
51839;DHT22;37886;53.174;6.368;2023-06-14T07:23:43;19.40;99.90
51839;DHT22;37886;53.174;6.368;2023-06-14T07:26:09;19.50;99.90
51839;DHT22;37886;53.174;6.368;2023-06-14T07:28:35;19.60;99.90
51839;DHT22;37886;53.174;6.368;2023-06-14T07:31:01;19.70;99.90
51839;DHT22;37886;53.174;6.368;2023-06-14T07:33:28;19.80;99.90
51839;DHT22;37886;53.174;6.368;2023-06-14T07:35:54;19.90;99.90
51839;DHT22;37886;53.174;6.368;2023-06-14T07:38:20;20.00;99.90
51839;DHT22;37886;53.174;6.368;2023-06-14T07:40:46;20.10;99.90
51839;DHT22;37886;53.174;6.368;2023-06-14T07:43:11;20.20;99.90
51839;DHT22;37886;53.174;6.368;2023-06-14T07:45:37;20.40;99.90
51839;DHT22;37886;53.174;6.368;2023-06-14T07:48:04;20.30;99.90
51839;DHT22;37886;53.174;6.368;2023-06-14T07:50:29;20.40;99.90
51839;DHT22;37886;53.174;6.368;2023-06-14T07:52:56;20.50;99.90
51839;DHT22;37886;53.174;6.368;2023-06-14T07:55:22;20.60;99.90
51839;DHT22;37886;53.174;6.368;2023-06-14T07:57:48;20.70;99.90
51839;DHT22;37886;53.174;6.368;2023-06-14T08:00:14;20.80;99.90
51839;DHT22;37886;53.174;6.368;2023-06-14T08:02:44;21.00;99.90
51839;DHT22;37886;53.174;6.368;2023-06-14T08:05:11;21.10;99.90
51839;DHT22;37886;53.174;6.368;2023-06-14T08:07:37;21.20;99.90
51839;DHT22;37886;53.174;6.368;2023-06-14T08:10:07;21.40;99.90
51839;DHT22;37886;53.174;6.368;2023-06-14T08:12:33;21.50;99.90
51839;DHT22;37886;53.174;6.368;2023-06-14T08:15:00;21.70;99.90
51839;DHT22;37886;53.174;6.368;2023-06-14T08:17:26;21.90;99.80
51839;DHT22;37886;53.174;6.368;2023-06-14T08:19:52;22.10;99.60
51839;DHT22;37886;53.174;6.368;2023-06-14T08:22:20;22.10;99.20
51839;DHT22;37886;53.174;6.368;2023-06-14T08:24:48;22.40;99.30
51839;DHT22;37886;53.174;6.368;2023-06-14T08:27:14;22.50;98.30
51839;DHT22;37886;53.174;6.368;2023-06-14T08:29:40;22.70;98.10
51839;DHT22;37886;53.174;6.368;2023-06-14T08:32:07;22.70;97.50
51839;DHT22;37886;53.174;6.368;2023-06-14T08:34:33;22.90;98.40
51839;DHT22;37886;53.174;6.368;2023-06-14T08:36:58;23.20;97.00
51839;DHT22;37886;53.174;6.368;2023-06-14T08:39:30;23.20;97.10
51839;DHT22;37886;53.174;6.368;2023-06-14T08:41:56;23.60;97.40
51839;DHT22;37886;53.174;6.368;2023-06-14T08:44:22;23.70;96.80
51839;DHT22;37886;53.174;6.368;2023-06-14T08:46:49;23.60;96.40
51839;DHT22;37886;53.174;6.368;2023-06-14T08:49:17;23.60;95.70
51839;DHT22;37886;53.174;6.368;2023-06-14T08:51:44;23.50;96.00
51839;DHT22;37886;53.174;6.368;2023-06-14T08:54:11;23.50;95.00
51839;DHT22;37886;53.174;6.368;2023-06-14T08:56:38;23.40;95.70
51839;DHT22;37886;53.174;6.368;2023-06-14T08:59:08;23.40;95.80
51839;DHT22;37886;53.174;6.368;2023-06-14T09:01:36;23.50;95.90
51839;DHT22;37886;53.174;6.368;2023-06-14T09:04:02;23.50;95.70
51839;DHT22;37886;53.174;6.368;2023-06-14T09:06:31;23.50;96.40
51839;DHT22;37886;53.174;6.368;2023-06-14T09:08:57;23.40;95.30
51839;DHT22;37886;53.174;6.368;2023-06-14T09:11:23;23.40;95.10
51839;DHT22;37886;53.174;6.368;2023-06-14T09:13:50;23.30;95.00
51839;DHT22;37886;53.174;6.368;2023-06-14T09:16:16;23.20;95.00
51839;DHT22;37886;53.174;6.368;2023-06-14T09:18:46;23.20;95.20
51839;DHT22;37886;53.174;6.368;2023-06-14T09:21:17;23.10;94.60
51839;DHT22;37886;53.174;6.368;2023-06-14T09:23:45;23.20;94.50
51839;DHT22;37886;53.174;6.368;2023-06-14T09:26:16;23.20;94.20
51839;DHT22;37886;53.174;6.368;2023-06-14T09:28:45;23.20;95.30
51839;DHT22;37886;53.174;6.368;2023-06-14T09:31:12;23.30;94.60
51839;DHT22;37886;53.174;6.368;2023-06-14T09:33:38;23.30;93.70
51839;DHT22;37886;53.174;6.368;2023-06-14T09:36:10;23.20;94.00
51839;DHT22;37886;53.174;6.368;2023-06-14T09:38:36;23.30;94.00
51839;DHT22;37886;53.174;6.368;2023-06-14T09:41:03;23.40;93.80
51839;DHT22;37886;53.174;6.368;2023-06-14T09:43:29;23.60;94.30
51839;DHT22;37886;53.174;6.368;2023-06-14T09:45:55;23.70;94.10
51839;DHT22;37886;53.174;6.368;2023-06-14T09:48:21;23.80;94.40
51839;DHT22;37886;53.174;6.368;2023-06-14T09:50:48;24.10;94.30
51839;DHT22;37886;53.174;6.368;2023-06-14T09:53:15;24.10;93.90
51839;DHT22;37886;53.174;6.368;2023-06-14T09:55:43;24.00;93.50
51839;DHT22;37886;53.174;6.368;2023-06-14T09:58:12;23.80;93.20
51839;DHT22;37886;53.174;6.368;2023-06-14T10:00:40;23.90;93.80
51839;DHT22;37886;53.174;6.368;2023-06-14T10:03:16;24.00;94.10
51839;DHT22;37886;53.174;6.368;2023-06-14T10:05:47;24.00;93.20
51839;DHT22;37886;53.174;6.368;2023-06-14T10:08:16;24.00;93.50
51839;DHT22;37886;53.174;6.368;2023-06-14T10:10:43;24.00;93.90
51839;DHT22;37886;53.174;6.368;2023-06-14T10:13:11;24.40;93.60
51839;DHT22;37886;53.174;6.368;2023-06-14T10:15:54;24.30;92.80
51839;DHT22;37886;53.174;6.368;2023-06-14T10:18:33;24.30;92.60
51839;DHT22;37886;53.174;6.368;2023-06-14T10:23:42;24.50;92.00
51839;DHT22;37886;53.174;6.368;2023-06-14T10:26:08;24.60;91.90
51839;DHT22;37886;53.174;6.368;2023-06-14T10:31:46;25.20;91.40
51839;DHT22;37886;53.174;6.368;2023-06-14T10:34:22;25.50;91.70
51839;DHT22;37886;53.174;6.368;2023-06-14T10:39:28;26.20;91.60
51839;DHT22;37886;53.174;6.368;2023-06-14T10:41:55;26.30;90.40
51839;DHT22;37886;53.174;6.368;2023-06-14T10:46:55;25.80;88.00
51839;DHT22;37886;53.174;6.368;2023-06-14T10:49:44;26.00;89.10
51839;DHT22;37886;53.174;6.368;2023-06-14T10:52:13;26.30;88.70
51839;DHT22;37886;53.174;6.368;2023-06-14T10:55:04;26.40;89.20
51839;DHT22;37886;53.174;6.368;2023-06-14T10:57:30;26.40;88.40
51839;DHT22;37886;53.174;6.368;2023-06-14T11:00:03;26.60;88.40
51839;DHT22;37886;53.174;6.368;2023-06-14T11:11:07;27.30;89.70
51839;DHT22;37886;53.174;6.368;2023-06-14T11:13:33;27.20;87.60
51839;DHT22;37886;53.174;6.368;2023-06-14T11:15:59;27.30;86.30
51839;DHT22;37886;53.174;6.368;2023-06-14T11:18:25;27.60;87.20
51839;DHT22;37886;53.174;6.368;2023-06-14T11:20:53;27.30;83.90
51839;DHT22;37886;53.174;6.368;2023-06-14T11:23:19;27.20;84.80
51839;DHT22;37886;53.174;6.368;2023-06-14T11:25:52;27.10;85.00
51839;DHT22;37886;53.174;6.368;2023-06-14T11:28:17;27.50;86.40
51839;DHT22;37886;53.174;6.368;2023-06-14T11:30:45;28.20;84.60
51839;DHT22;37886;53.174;6.368;2023-06-14T11:33:17;28.30;86.50
51839;DHT22;37886;53.174;6.368;2023-06-14T11:35:44;28.80;84.30
51839;DHT22;37886;53.174;6.368;2023-06-14T11:38:11;28.50;81.30
51839;DHT22;37886;53.174;6.368;2023-06-14T11:40:38;28.10;81.70
51839;DHT22;37886;53.174;6.368;2023-06-14T11:43:04;28.10;82.30
51839;DHT22;37886;53.174;6.368;2023-06-14T11:45:30;27.70;82.90
51839;DHT22;37886;53.174;6.368;2023-06-14T11:48:00;27.90;84.00
51839;DHT22;37886;53.174;6.368;2023-06-14T11:50:27;28.40;83.20
51839;DHT22;37886;53.174;6.368;2023-06-14T11:52:54;28.70;83.80
51839;DHT22;37886;53.174;6.368;2023-06-14T11:55:22;28.20;81.00
51839;DHT22;37886;53.174;6.368;2023-06-14T11:57:48;27.90;82.20
51839;DHT22;37886;53.174;6.368;2023-06-14T12:00:14;28.60;80.40
51839;DHT22;37886;53.174;6.368;2023-06-14T12:02:41;28.90;81.70
51839;DHT22;37886;53.174;6.368;2023-06-14T12:05:08;28.30;80.90
51839;DHT22;37886;53.174;6.368;2023-06-14T12:07:38;27.70;80.60
51839;DHT22;37886;53.174;6.368;2023-06-14T12:10:08;27.50;82.30
51839;DHT22;37886;53.174;6.368;2023-06-14T12:12:40;27.40;80.60
51839;DHT22;37886;53.174;6.368;2023-06-14T12:15:07;27.90;80.20
51839;DHT22;37886;53.174;6.368;2023-06-14T12:17:34;28.20;81.40
51839;DHT22;37886;53.174;6.368;2023-06-14T12:20:11;28.00;80.70
51839;DHT22;37886;53.174;6.368;2023-06-14T12:22:46;28.00;79.20
51839;DHT22;37886;53.174;6.368;2023-06-14T12:27:53;28.40;79.00
51839;DHT22;37886;53.174;6.368;2023-06-14T12:30:23;28.30;77.70
51839;DHT22;37886;53.174;6.368;2023-06-14T12:32:48;28.60;76.80
51839;DHT22;37886;53.174;6.368;2023-06-14T12:35:15;28.40;78.40
51839;DHT22;37886;53.174;6.368;2023-06-14T12:37:41;28.80;78.30
51839;DHT22;37886;53.174;6.368;2023-06-14T12:40:07;29.00;79.70
51839;DHT22;37886;53.174;6.368;2023-06-14T12:42:33;29.10;76.80
51839;DHT22;37886;53.174;6.368;2023-06-14T12:45:02;29.10;77.10
51839;DHT22;37886;53.174;6.368;2023-06-14T12:47:28;28.90;76.40
51839;DHT22;37886;53.174;6.368;2023-06-14T12:49:53;29.10;76.20
51839;DHT22;37886;53.174;6.368;2023-06-14T12:52:19;29.20;75.90
51839;DHT22;37886;53.174;6.368;2023-06-14T12:54:45;28.40;74.80
51839;DHT22;37886;53.174;6.368;2023-06-14T12:57:11;27.80;76.10
51839;DHT22;37886;53.174;6.368;2023-06-14T12:59:37;28.40;77.00
51839;DHT22;37886;53.174;6.368;2023-06-14T13:02:13;29.00;76.30
51839;DHT22;37886;53.174;6.368;2023-06-14T13:04:38;29.40;75.60
51839;DHT22;37886;53.174;6.368;2023-06-14T13:07:05;29.20;75.40
51839;DHT22;37886;53.174;6.368;2023-06-14T13:09:30;28.60;76.60
51839;DHT22;37886;53.174;6.368;2023-06-14T13:11:56;29.40;75.30
51839;DHT22;37886;53.174;6.368;2023-06-14T13:14:22;29.50;75.30
51839;DHT22;37886;53.174;6.368;2023-06-14T13:16:48;28.80;75.20
51839;DHT22;37886;53.174;6.368;2023-06-14T13:19:14;29.30;75.40
51839;DHT22;37886;53.174;6.368;2023-06-14T13:21:40;29.60;74.60
51839;DHT22;37886;53.174;6.368;2023-06-14T13:24:06;29.90;74.70
51839;DHT22;37886;53.174;6.368;2023-06-14T13:26:33;29.70;73.20
51839;DHT22;37886;53.174;6.368;2023-06-14T13:28:59;30.00;74.30
51839;DHT22;37886;53.174;6.368;2023-06-14T13:31:25;29.40;73.20
51839;DHT22;37886;53.174;6.368;2023-06-14T13:33:51;28.20;74.30
51839;DHT22;37886;53.174;6.368;2023-06-14T13:36:17;27.70;75.00
51839;DHT22;37886;53.174;6.368;2023-06-14T13:38:43;28.00;76.40
51839;DHT22;37886;53.174;6.368;2023-06-14T13:41:09;28.80;75.40
51839;DHT22;37886;53.174;6.368;2023-06-14T13:43:34;29.50;74.50
51839;DHT22;37886;53.174;6.368;2023-06-14T13:46:00;30.00;74.10
51839;DHT22;37886;53.174;6.368;2023-06-14T13:48:26;30.10;73.90
51839;DHT22;37886;53.174;6.368;2023-06-14T13:50:52;29.40;73.50
51839;DHT22;37886;53.174;6.368;2023-06-14T13:53:17;29.80;71.80
51839;DHT22;37886;53.174;6.368;2023-06-14T13:55:43;29.40;73.90
51839;DHT22;37886;53.174;6.368;2023-06-14T13:58:09;29.40;72.70
51839;DHT22;37886;53.174;6.368;2023-06-14T14:00:35;29.70;73.40
51839;DHT22;37886;53.174;6.368;2023-06-14T14:03:06;30.20;72.40
51839;DHT22;37886;53.174;6.368;2023-06-14T14:05:32;30.40;72.30
51839;DHT22;37886;53.174;6.368;2023-06-14T14:07:58;30.40;70.80
51839;DHT22;37886;53.174;6.368;2023-06-14T14:10:26;30.10;72.00
51839;DHT22;37886;53.174;6.368;2023-06-14T14:12:52;30.30;72.60
51839;DHT22;37886;53.174;6.368;2023-06-14T14:15:20;30.40;70.90
51839;DHT22;37886;53.174;6.368;2023-06-14T14:17:46;31.10;70.30
51839;DHT22;37886;53.174;6.368;2023-06-14T14:20:12;31.50;71.70
51839;DHT22;37886;53.174;6.368;2023-06-14T14:22:44;30.50;68.80
51839;DHT22;37886;53.174;6.368;2023-06-14T14:25:10;29.00;70.60
51839;DHT22;37886;53.174;6.368;2023-06-14T14:27:36;29.50;73.00
51839;DHT22;37886;53.174;6.368;2023-06-14T14:30:03;30.30;72.40
51839;DHT22;37886;53.174;6.368;2023-06-14T14:32:29;30.40;72.40
51839;DHT22;37886;53.174;6.368;2023-06-14T14:34:55;30.70;71.50
51839;DHT22;37886;53.174;6.368;2023-06-14T14:37:21;30.50;70.00
51839;DHT22;37886;53.174;6.368;2023-06-14T14:39:46;29.30;71.60
51839;DHT22;37886;53.174;6.368;2023-06-14T14:42:12;28.20;72.80
51839;DHT22;37886;53.174;6.368;2023-06-14T14:44:39;27.80;74.60
51839;DHT22;37886;53.174;6.368;2023-06-14T14:47:05;27.40;74.50
51839;DHT22;37886;53.174;6.368;2023-06-14T14:49:32;27.10;75.00
51839;DHT22;37886;53.174;6.368;2023-06-14T14:51:57;28.60;72.90
51839;DHT22;37886;53.174;6.368;2023-06-14T14:54:23;29.80;73.30
51839;DHT22;37886;53.174;6.368;2023-06-14T14:56:51;30.30;73.50
51839;DHT22;37886;53.174;6.368;2023-06-14T14:59:17;30.30;72.20
51839;DHT22;37886;53.174;6.368;2023-06-14T15:01:44;30.20;70.60
51839;DHT22;37886;53.174;6.368;2023-06-14T15:04:11;30.20;69.20
51839;DHT22;37886;53.174;6.368;2023-06-14T15:06:37;30.00;69.60
51839;DHT22;37886;53.174;6.368;2023-06-14T15:09:05;30.40;69.80
51839;DHT22;37886;53.174;6.368;2023-06-14T15:11:31;31.00;69.40
51839;DHT22;37886;53.174;6.368;2023-06-14T15:13:57;31.80;71.10
51839;DHT22;37886;53.174;6.368;2023-06-14T15:16:23;31.60;69.70
51839;DHT22;37886;53.174;6.368;2023-06-14T15:18:49;31.80;68.10
51839;DHT22;37886;53.174;6.368;2023-06-14T15:21:15;31.90;68.60
51839;DHT22;37886;53.174;6.368;2023-06-14T15:23:41;31.30;67.70
51839;DHT22;37886;53.174;6.368;2023-06-14T15:26:07;31.30;68.20
51839;DHT22;37886;53.174;6.368;2023-06-14T15:28:32;31.40;67.80
51839;DHT22;37886;53.174;6.368;2023-06-14T15:30:59;29.70;69.10
51839;DHT22;37886;53.174;6.368;2023-06-14T15:33:25;28.50;70.50
51839;DHT22;37886;53.174;6.368;2023-06-14T15:35:51;29.00;70.90
51839;DHT22;37886;53.174;6.368;2023-06-14T15:38:16;28.40;70.80
51839;DHT22;37886;53.174;6.368;2023-06-14T15:40:42;28.80;72.40
51839;DHT22;37886;53.174;6.368;2023-06-14T15:43:08;30.00;70.50
51839;DHT22;37886;53.174;6.368;2023-06-14T15:45:34;30.60;70.20
51839;DHT22;37886;53.174;6.368;2023-06-14T15:47:59;31.00;68.30
51839;DHT22;37886;53.174;6.368;2023-06-14T15:50:26;31.20;68.00
51839;DHT22;37886;53.174;6.368;2023-06-14T15:52:52;30.70;68.90
51839;DHT22;37886;53.174;6.368;2023-06-14T15:55:18;31.00;68.00
51839;DHT22;37886;53.174;6.368;2023-06-14T15:57:44;31.00;67.30